Time;durP1;ratioP1;P1;durP2;ratioP2;P2;SDS_P1;SDS_P2;PMS_P1;PMS_P2;Temp;Humidity;BMP_temperature;BMP_pressure;BME280_temperature;BME280_humidity;BME280_pressure;Samples;Min_cycle;Max_cycle;Signal;HPM_P1;HPM_P2
2022/03/26 00:01:38;;;;;;;32.55;17.48;;;7.60;80.40;;;;;;5032192;28;20463;-87
2022/03/26 00:04:05;;;;;;;31.02;17.33;;;7.50;81.00;;;;;;5032332;28;20041;-87
2022/03/26 00:06:32;;;;;;;31.60;18.55;;;7.50;81.70;;;;;;5016022;28;20808;-87
2022/03/26 00:08:57;;;;;;;34.72;18.83;;;7.50;82.40;;;;;;5032128;28;20394;-87
2022/03/26 00:11:23;;;;;;;33.92;19.00;;;7.40;82.50;;;;;;5031677;28;20526;-87
2022/03/26 00:13:48;;;;;;;34.63;19.42;;;7.40;83.00;;;;;;5032581;28;20110;-87
2022/03/26 00:16:14;;;;;;;34.00;18.63;;;7.40;83.60;;;;;;5032493;28;20052;-87
2022/03/26 00:18:39;;;;;;;30.70;17.75;;;7.40;83.70;;;;;;5032313;28;20041;-87
2022/03/26 00:21:06;;;;;;;33.35;19.35;;;7.40;84.40;;;;;;5031686;28;20052;-87
2022/03/26 00:23:32;;;;;;;35.40;18.67;;;7.30;85.00;;;;;;5031913;28;20049;-87
2022/03/26 00:25:58;;;;;;;33.67;18.60;;;7.30;85.40;;;;;;5032542;28;20042;-87
2022/03/26 00:28:24;;;;;;;32.58;17.45;;;7.20;86.00;;;;;;5032038;28;20080;-88
2022/03/26 00:30:50;;;;;;;33.72;18.92;;;7.20;86.40;;;;;;5031120;28;20041;-87
2022/03/26 00:33:16;;;;;;;33.63;19.08;;;7.20;87.10;;;;;;5032339;28;20064;-87
2022/03/26 00:35:42;;;;;;;30.42;17.77;;;7.10;87.90;;;;;;5032048;28;20049;-87
2022/03/26 00:38:08;;;;;;;30.38;18.45;;;7.10;88.60;;;;;;5015536;28;20038;-87
2022/03/26 00:40:34;;;;;;;30.20;17.95;;;7.10;89.30;;;;;;5031667;28;20056;-87
2022/03/26 00:43:00;;;;;;;33.05;18.23;;;7.00;89.30;;;;;;5030493;28;20529;-87
2022/03/26 00:45:29;;;;;;;31.73;18.15;;;7.00;90.00;;;;;;5031875;28;20077;-87
2022/03/26 00:47:55;;;;;;;31.55;18.30;;;6.90;90.10;;;;;;5031990;28;20048;-87
2022/03/26 00:50:21;;;;;;;30.27;17.35;;;6.90;90.20;;;;;;5031044;28;20080;-86
2022/03/26 00:52:47;;;;;;;31.80;18.15;;;6.80;90.50;;;;;;5031491;28;20085;-87
2022/03/26 00:55:13;;;;;;;32.38;18.33;;;6.80;90.50;;;;;;5031720;28;20407;-87
2022/03/26 00:57:39;;;;;;;32.42;18.48;;;6.70;90.70;;;;;;5015187;28;20513;-87
2022/03/26 01:00:06;;;;;;;29.23;17.27;;;6.70;90.90;;;;;;5030798;28;20044;-87
2022/03/26 01:02:32;;;;;;;32.75;18.25;;;6.70;91.10;;;;;;5031616;28;20411;-87
2022/03/26 01:04:59;;;;;;;34.08;18.73;;;6.70;91.30;;;;;;5031477;28;20048;-87
2022/03/26 01:07:26;;;;;;;37.13;18.58;;;6.70;91.50;;;;;;5031854;28;20434;-87
2022/03/26 01:09:53;;;;;;;30.58;16.70;;;6.70;91.80;;;;;;5032271;28;20096;-88
2022/03/26 01:12:19;;;;;;;31.50;17.15;;;6.60;92.10;;;;;;5014678;28;20041;-87
2022/03/26 01:14:45;;;;;;;29.63;17.77;;;6.60;92.30;;;;;;5031002;28;20079;-87
2022/03/26 01:17:10;;;;;;;31.75;17.38;;;6.50;92.30;;;;;;5031024;28;20041;-87
2022/03/26 01:19:36;;;;;;;39.03;19.17;;;6.50;92.50;;;;;;5031047;28;20041;-87
2022/03/26 01:22:02;;;;;;;32.90;18.33;;;6.50;92.50;;;;;;5031126;28;20103;-87
2022/03/26 01:24:27;;;;;;;32.92;18.60;;;6.50;92.60;;;;;;5031226;28;20554;-87
2022/03/26 01:26:53;;;;;;;38.35;19.55;;;6.40;92.70;;;;;;5014628;28;20128;-87
2022/03/26 01:29:19;;;;;;;34.20;19.85;;;6.40;92.70;;;;;;5014541;28;20124;-88
2022/03/26 01:31:44;;;;;;;32.72;18.65;;;6.40;92.80;;;;;;5030357;28;20033;-87
2022/03/26 01:34:10;;;;;;;33.05;18.95;;;6.40;92.90;;;;;;5013469;28;20045;-87
2022/03/26 01:36:35;;;;;;;35.10;18.40;;;6.40;93.10;;;;;;5030413;28;20048;-87
2022/03/26 01:39:01;;;;;;;33.22;19.35;;;6.40;93.40;;;;;;5030862;28;20037;-87
2022/03/26 01:41:27;;;;;;;31.88;19.55;;;6.30;93.40;;;;;;5014165;28;20068;-87
2022/03/26 01:43:52;;;;;;;36.75;20.00;;;6.30;93.50;;;;;;5029734;28;20084;-87
2022/03/26 01:46:20;;;;;;;33.28;18.98;;;6.30;93.70;;;;;;5030970;28;20068;-87
2022/03/26 01:48:47;;;;;;;35.88;19.92;;;6.20;93.70;;;;;;5014387;28;20038;-87
2022/03/26 01:51:16;;;;;;;34.90;18.90;;;6.20;93.80;;;;;;5030165;28;20086;-87
2022/03/26 01:53:50;;;;;;;36.42;18.90;;;6.20;93.90;;;;;;5012834;28;20120;-87
2022/03/26 01:56:17;;;;;;;34.30;18.92;;;6.10;94.00;;;;;;5029838;28;20684;-87
2022/03/26 01:58:43;;;;;;;30.20;17.20;;;6.10;94.20;;;;;;5014002;28;20052;-86
2022/03/26 02:01:09;;;;;;;30.60;16.52;;;6.00;94.40;;;;;;5030050;28;20108;-87
2022/03/26 02:03:35;;;;;;;33.53;17.67;;;6.00;94.50;;;;;;5030426;28;20064;-88
2022/03/26 02:06:02;;;;;;;33.05;18.42;;;6.00;94.60;;;;;;5030022;28;20037;-87
2022/03/26 02:08:27;;;;;;;35.22;18.42;;;6.00;94.70;;;;;;5030485;28;20042;-87
2022/03/26 02:10:53;;;;;;;32.63;18.83;;;5.90;95.10;;;;;;5030359;28;20060;-87
2022/03/26 02:13:19;;;;;;;34.35;19.15;;;5.90;95.20;;;;;;5030085;28;20490;-87
2022/03/26 02:15:45;;;;;;;34.53;18.83;;;5.90;95.30;;;;;;5029333;28;20855;-87
2022/03/26 02:18:11;;;;;;;39.53;19.10;;;5.80;95.50;;;;;;5029911;28;20037;-87
2022/03/26 02:20:37;;;;;;;37.00;19.45;;;5.80;95.60;;;;;;5029683;28;20047;-87
2022/03/26 02:23:03;;;;;;;36.70;20.45;;;5.80;95.80;;;;;;5030173;28;20388;-87
2022/03/26 02:25:29;;;;;;;44.97;22.05;;;5.80;95.80;;;;;;5030301;28;20588;-87
2022/03/26 02:27:54;;;;;;;38.83;21.88;;;5.70;95.90;;;;;;5030245;28;20037;-87
2022/03/26 02:30:21;;;;;;;37.13;20.30;;;5.70;96.00;;;;;;5013258;28;20151;-87
2022/03/26 02:32:47;;;;;;;34.47;20.13;;;5.70;96.10;;;;;;5030149;28;20045;-87
2022/03/26 02:35:12;;;;;;;39.47;22.40;;;5.70;96.20;;;;;;5012974;28;20056;-87
2022/03/26 02:37:38;;;;;;;40.03;21.48;;;5.70;96.30;;;;;;5030104;28;20029;-87
2022/03/26 02:40:07;;;;;;;36.95;19.58;;;5.70;96.40;;;;;;5029676;28;20048;-87
2022/03/26 02:42:34;;;;;;;42.42;23.73;;;5.60;96.40;;;;;;5029917;28;20665;-87
2022/03/26 02:45:00;;;;;;;42.88;24.73;;;5.60;96.60;;;;;;5031472;28;20127;-87
2022/03/26 02:47:26;;;;;;;47.53;27.70;;;5.60;96.90;;;;;;5030047;28;20040;-86
2022/03/26 02:49:52;;;;;;;49.25;28.83;;;5.60;96.90;;;;;;5029669;28;20034;-87
2022/03/26 02:52:17;;;;;;;45.25;25.98;;;5.60;97.10;;;;;;5029950;28;20124;-87
2022/03/26 02:54:43;;;;;;;60.10;31.75;;;5.60;97.40;;;;;;5029047;28;20034;-87
2022/03/26 02:57:09;;;;;;;57.08;29.38;;;5.60;97.70;;;;;;5012722;28;20418;-87
2022/03/26 02:59:34;;;;;;;62.40;33.10;;;5.50;97.90;;;;;;5029493;28;20638;-87
2022/03/26 03:02:00;;;;;;;54.63;31.23;;;5.50;98.30;;;;;;5029271;28;20040;-87
2022/03/26 03:04:26;;;;;;;59.90;31.83;;;5.50;98.50;;;;;;5029258;28;20037;-87
2022/03/26 03:06:52;;;;;;;49.30;26.48;;;5.50;98.70;;;;;;5029995;28;20087;-87
2022/03/26 03:09:18;;;;;;;43.90;24.23;;;5.50;98.90;;;;;;5029710;28;20506;-87
2022/03/26 03:11:44;;;;;;;43.70;23.58;;;5.50;99.20;;;;;;5028948;28;20038;-87
2022/03/26 03:14:10;;;;;;;40.00;21.48;;;5.50;99.30;;;;;;5028801;28;20068;-87
2022/03/26 03:16:36;;;;;;;39.22;22.05;;;5.40;99.50;;;;;;5029422;28;20068;-87
2022/03/26 03:19:05;;;;;;;36.97;20.83;;;5.40;99.40;;;;;;5054275;28;20035;-87
2022/03/26 03:21:32;;;;;;;33.30;19.10;;;5.30;99.90;;;;;;5034919;28;20495;-87
2022/03/26 03:23:58;;;;;;;38.97;21.13;;;5.20;99.80;;;;;;5035430;28;20052;-87
2022/03/26 03:26:23;;;;;;;46.50;24.42;;;5.20;99.90;;;;;;5035117;28;20034;-87
2022/03/26 03:28:49;;;;;;;41.13;22.58;;;5.20;99.90;;;;;;5034526;28;20046;-88
2022/03/26 03:31:14;;;;;;;44.35;24.55;;;5.20;99.90;;;;;;5033347;28;20049;-87
2022/03/26 03:33:40;;;;;;;44.75;23.50;;;5.20;99.90;;;;;;5016808;28;20045;-87
2022/03/26 03:36:06;;;;;;;41.20;24.50;;;5.10;99.90;;;;;;5032907;28;20042;-87
2022/03/26 03:38:32;;;;;;;42.80;21.98;;;5.10;99.90;;;;;;5033150;28;20111;-88
2022/03/26 03:40:58;;;;;;;42.20;24.25;;;5.20;99.90;;;;;;5032609;28;20534;-87
2022/03/26 03:43:24;;;;;;;43.45;24.45;;;5.10;99.90;;;;;;5015676;28;20037;-87
2022/03/26 03:45:50;;;;;;;46.53;25.55;;;5.00;99.90;;;;;;5033104;28;20394;-88
2022/03/26 03:48:15;;;;;;;46.75;25.10;;;5.00;99.90;;;;;;5016883;28;20403;-87
2022/03/26 03:50:42;;;;;;;42.08;22.98;;;5.00;99.90;;;;;;5032497;28;20033;-87
2022/03/26 03:53:07;;;;;;;40.55;24.70;;;4.90;99.90;;;;;;5032543;28;20064;-88
2022/03/26 03:55:33;;;;;;;42.30;23.85;;;4.90;99.90;;;;;;5015568;28;20037;-88
2022/03/26 03:57:59;;;;;;;47.90;26.52;;;4.90;99.90;;;;;;5032375;28;20073;-87
2022/03/26 04:00:25;;;;;;;43.95;24.67;;;4.90;99.90;;;;;;5032450;28;20041;-87
2022/03/26 04:02:53;;;;;;;42.17;25.17;;;4.80;99.90;;;;;;5032653;28;20127;-87
2022/03/26 04:05:19;;;;;;;46.25;24.63;;;4.80;99.90;;;;;;5032860;28;20136;-87
2022/03/26 04:07:44;;;;;;;43.50;23.70;;;4.80;99.90;;;;;;5032619;28;20045;-87
2022/03/26 04:10:10;;;;;;;47.35;23.88;;;4.80;99.90;;;;;;5015846;28;20120;-87
2022/03/26 04:12:41;;;;;;;41.92;23.95;;;4.70;99.90;;;;;;5016345;28;20403;-87
2022/03/26 04:15:09;;;;;;;41.92;23.63;;;4.70;99.90;;;;;;5031561;28;20049;-87
2022/03/26 04:17:35;;;;;;;45.20;24.65;;;4.70;99.90;;;;;;5015559;28;20399;-87
2022/03/26 04:20:09;;;;;;;42.00;23.50;;;4.60;99.90;;;;;;5031736;28;20029;-87
2022/03/26 04:22:39;;;;;;;47.80;24.60;;;4.60;99.90;;;;;;5015328;28;20487;-87
2022/03/26 04:25:06;;;;;;;45.65;24.50;;;4.60;99.90;;;;;;5032182;28;20495;-87
2022/03/26 04:27:32;;;;;;;45.55;24.58;;;4.60;99.90;;;;;;5015961;28;20038;-87
2022/03/26 04:29:58;;;;;;;43.10;24.08;;;4.60;99.90;;;;;;5031530;28;20047;-87
2022/03/26 04:32:23;;;;;;;49.90;27.02;;;4.60;99.90;;;;;;5015718;28;20511;-87
2022/03/26 04:34:49;;;;;;;47.50;26.38;;;4.60;99.90;;;;;;5015018;28;20041;-87
2022/03/26 04:37:15;;;;;;;48.42;26.05;;;4.60;99.90;;;;;;5031796;28;20072;-87
2022/03/26 04:39:41;;;;;;;47.88;25.00;;;4.60;99.90;;;;;;5031559;28;20061;-87
2022/03/26 04:42:07;;;;;;;41.97;24.27;;;4.60;99.90;;;;;;5030621;28;20041;-87
2022/03/26 04:44:32;;;;;;;44.90;26.20;;;4.60;99.90;;;;;;5015368;28;20052;-87
2022/03/26 04:46:58;;;;;;;45.63;24.75;;;4.60;99.90;;;;;;5033112;28;20041;-87
2022/03/26 04:49:24;;;;;;;48.42;25.33;;;4.50;99.90;;;;;;5031904;28;20033;-87
2022/03/26 04:51:49;;;;;;;46.35;26.05;;;4.50;99.90;;;;;;5031275;28;20037;-87
2022/03/26 04:54:15;;;;;;;45.65;25.15;;;4.50;99.90;;;;;;5031166;28;20041;-87
2022/03/26 04:56:41;;;;;;;47.50;24.80;;;4.50;99.90;;;;;;5032769;28;20118;-87
2022/03/26 04:59:07;;;;;;;47.35;25.27;;;4.40;99.90;;;;;;5030931;28;20410;-87
2022/03/26 05:01:32;;;;;;;53.45;26.30;;;4.40;99.90;;;;;;5030836;28;20046;-87
2022/03/26 05:03:58;;;;;;;49.78;25.05;;;4.40;99.90;;;;;;5031367;28;20063;-87
2022/03/26 05:06:24;;;;;;;48.05;26.83;;;4.40;99.90;;;;;;5014843;28;20504;-87
2022/03/26 05:08:49;;;;;;;46.10;24.00;;;4.40;99.90;;;;;;5031551;28;20037;-87
2022/03/26 05:11:16;;;;;;;47.03;25.63;;;4.40;99.90;;;;;;5031259;28;20549;-87
2022/03/26 05:13:42;;;;;;;56.80;27.55;;;4.40;99.90;;;;;;5014847;28;20045;-87
2022/03/26 05:16:07;;;;;;;48.35;24.38;;;4.40;99.90;;;;;;5014262;28;20101;-87
2022/03/26 05:18:35;;;;;;;44.75;24.52;;;4.40;99.90;;;;;;5031206;28;20472;-87
2022/03/26 05:21:01;;;;;;;44.13;24.13;;;4.40;99.90;;;;;;5014079;28;20044;-87
2022/03/26 05:23:26;;;;;;;42.75;22.35;;;4.40;99.90;;;;;;5030966;28;20037;-87
2022/03/26 05:25:53;;;;;;;39.40;21.35;;;4.40;99.90;;;;;;5031451;28;20465;-86
2022/03/26 05:28:19;;;;;;;36.55;20.15;;;4.40;99.90;;;;;;5013899;28;20498;-87
2022/03/26 05:30:48;;;;;;;38.92;20.02;;;4.30;99.90;;;;;;5014430;28;20044;-87
2022/03/26 05:33:14;;;;;;;38.65;20.52;;;4.30;99.90;;;;;;5030748;28;20037;-87
2022/03/26 05:35:39;;;;;;;39.70;21.90;;;4.30;99.90;;;;;;5030429;28;20052;-87
2022/03/26 05:38:05;;;;;;;37.70;22.23;;;4.30;99.90;;;;;;5014246;28;20042;-87
2022/03/26 05:40:31;;;;;;;39.88;21.35;;;4.30;99.90;;;;;;5029570;28;20082;-87
2022/03/26 05:42:56;;;;;;;46.53;23.63;;;4.20;99.90;;;;;;5028882;28;20091;-87
2022/03/26 05:45:22;;;;;;;50.30;25.90;;;4.20;99.90;;;;;;5030328;28;20069;-87
2022/03/26 05:47:49;;;;;;;42.97;21.52;;;4.20;99.90;;;;;;5030970;28;20168;-87
2022/03/26 05:50:15;;;;;;;42.22;24.13;;;4.20;99.90;;;;;;5013940;28;20125;-87
2022/03/26 05:52:40;;;;;;;42.95;23.90;;;4.10;99.90;;;;;;5036806;28;20609;-87
2022/03/26 05:55:07;;;;;;;47.03;24.02;;;4.10;99.90;;;;;;5050414;28;20036;-87
2022/03/26 05:57:33;;;;;;;47.70;23.85;;;4.10;99.90;;;;;;5050391;28;20052;-87
2022/03/26 05:59:59;;;;;;;46.58;23.52;;;4.20;99.90;;;;;;5033464;28;20114;-87
2022/03/26 06:02:24;;;;;;;43.80;23.48;;;4.20;99.90;;;;;;5033683;28;20091;-86
2022/03/26 06:04:50;;;;;;;42.35;23.85;;;4.20;99.90;;;;;;5049438;28;20565;-86
2022/03/26 06:07:15;;;;;;;46.67;23.08;;;4.10;99.90;;;;;;5050184;28;20648;-86
2022/03/26 06:09:41;;;;;;;40.25;23.75;;;4.20;99.90;;;;;;5050051;28;20127;-87
2022/03/26 06:12:07;;;;;;;42.65;23.25;;;4.20;99.90;;;;;;5050137;28;20115;-86
2022/03/26 06:14:34;;;;;;;45.53;23.08;;;4.20;99.90;;;;;;5050073;28;20070;-86
2022/03/26 06:17:00;;;;;;;48.53;23.70;;;4.20;99.90;;;;;;5049959;28;20041;-87
2022/03/26 06:19:26;;;;;;;46.22;26.15;;;4.30;99.90;;;;;;5049745;28;20045;-87
2022/03/26 06:21:52;;;;;;;53.25;26.25;;;4.30;99.90;;;;;;5037868;28;20048;-87
2022/03/26 06:24:18;;;;;;;51.33;26.40;;;4.30;99.90;;;;;;5028694;28;20033;-87
2022/03/26 06:26:44;;;;;;;51.88;25.85;;;4.30;99.90;;;;;;5028538;28;20033;-87
2022/03/26 06:29:12;;;;;;;48.50;27.73;;;4.40;99.90;;;;;;5029774;28;20045;-87
2022/03/26 06:31:37;;;;;;;53.42;28.00;;;4.40;99.90;;;;;;5029920;28;20123;-87
2022/03/26 06:34:03;;;;;;;54.75;28.10;;;4.40;99.90;;;;;;5029678;28;20077;-86
2022/03/26 06:36:29;;;;;;;58.58;29.23;;;4.50;99.90;;;;;;5030438;28;20524;-87
2022/03/26 06:38:54;;;;;;;61.53;31.15;;;4.50;99.90;;;;;;5029689;28;20040;-86
2022/03/26 06:41:21;;;;;;;55.10;28.90;;;4.60;99.90;;;;;;5028744;28;20083;-86
2022/03/26 06:43:47;;;;;;;62.42;30.15;;;4.60;99.90;;;;;;5028389;28;20558;-86
2022/03/26 06:46:13;;;;;;;63.80;34.25;;;4.70;99.90;;;;;;5029667;28;20042;-86
2022/03/26 06:48:39;;;;;;;62.70;33.30;;;4.80;99.90;;;;;;5030109;28;20036;-86
2022/03/26 06:51:08;;;;;;;64.13;33.67;;;4.80;99.90;;;;;;5012863;28;20033;-86
2022/03/26 06:53:34;;;;;;;68.97;34.85;;;4.90;99.90;;;;;;5033657;28;20044;-87
2022/03/26 06:56:00;;;;;;;64.70;34.80;;;5.00;99.90;;;;;;5033980;28;20042;-86
2022/03/26 06:58:25;;;;;;;78.90;41.78;;;5.00;99.90;;;;;;5034274;28;20044;-87
2022/03/26 07:00:52;;;;;;;84.88;42.72;;;5.20;99.90;;;;;;5033223;28;20049;-87
2022/03/26 07:03:19;;;;;;;79.95;43.30;;;5.30;99.90;;;;;;5016700;28;20748;-86
2022/03/26 07:05:44;;;;;;;86.05;44.03;;;5.40;99.90;;;;;;5032834;28;20445;-86
2022/03/26 07:08:10;;;;;;;81.70;44.92;;;5.50;99.90;;;;;;5034052;28;20498;-86
2022/03/26 07:10:37;;;;;;;88.30;45.45;;;5.60;99.90;;;;;;5016957;28;20183;-87
2022/03/26 07:13:03;;;;;;;87.20;46.38;;;5.70;99.90;;;;;;5033761;28;20042;-88
2022/03/26 07:15:31;;;;;;;102.95;49.60;;;5.80;99.90;;;;;;5033444;28;20486;-86
2022/03/26 07:17:58;;;;;;;96.68;50.45;;;5.90;99.90;;;;;;5033799;28;20052;-86
2022/03/26 07:20:23;;;;;;;101.00;51.17;;;6.00;99.90;;;;;;5016544;28;20516;-86
2022/03/26 07:22:49;;;;;;;98.22;50.17;;;6.20;99.90;;;;;;5033174;28;20041;-87
2022/03/26 07:25:15;;;;;;;99.88;51.33;;;6.30;99.90;;;;;;5032893;28;20137;-86
2022/03/26 07:27:41;;;;;;;99.45;53.25;;;6.50;99.90;;;;;;5033295;28;20494;-87
2022/03/26 07:30:08;;;;;;;99.35;52.65;;;6.60;99.90;;;;;;5032523;28;20117;-87
2022/03/26 07:32:34;;;;;;;100.80;52.53;;;6.70;99.90;;;;;;5033405;28;20037;-87
2022/03/26 07:35:01;;;;;;;107.07;55.00;;;6.80;99.90;;;;;;5031872;28;20049;-87
2022/03/26 07:37:26;;;;;;;105.68;55.13;;;6.90;99.90;;;;;;5017017;28;20041;-87
2022/03/26 07:39:52;;;;;;;111.07;56.22;;;7.10;99.90;;;;;;5015486;28;20037;-87
2022/03/26 07:42:18;;;;;;;104.40;56.13;;;7.20;99.90;;;;;;5031352;28;20045;-86
2022/03/26 07:44:43;;;;;;;106.38;55.95;;;7.40;99.90;;;;;;5031771;28;20125;-87
2022/03/26 07:47:09;;;;;;;105.38;55.63;;;7.50;99.90;;;;;;5032121;28;20034;-87
2022/03/26 07:49:34;;;;;;;104.60;56.72;;;7.70;99.90;;;;;;5032031;28;20033;-87
2022/03/26 07:52:00;;;;;;;102.07;54.22;;;7.80;99.90;;;;;;5032358;28;20041;-87
2022/03/26 07:54:27;;;;;;;105.38;55.08;;;7.90;99.90;;;;;;5032781;28;20511;-87
2022/03/26 07:56:52;;;;;;;96.72;52.70;;;8.10;99.90;;;;;;5032480;28;20102;-86
2022/03/26 07:59:18;;;;;;;90.28;50.17;;;8.30;99.90;;;;;;5032412;28;20052;-87
2022/03/26 08:01:44;;;;;;;94.13;52.63;;;8.40;99.90;;;;;;5031868;28;20037;-86
2022/03/26 08:04:09;;;;;;;93.82;55.00;;;8.60;99.90;;;;;;5031068;28;20056;-87
2022/03/26 08:06:35;;;;;;;95.13;53.00;;;8.70;99.90;;;;;;5031733;28;20048;-87
2022/03/26 08:09:01;;;;;;;97.78;52.80;;;8.90;99.90;;;;;;5031740;28;20414;-87
2022/03/26 08:11:26;;;;;;;86.82;51.08;;;9.00;99.90;;;;;;5032091;28;20091;-87
2022/03/26 08:13:52;;;;;;;85.53;49.90;;;9.20;99.90;;;;;;5032261;28;20514;-87
2022/03/26 08:16:18;;;;;;;85.10;48.20;;;9.40;99.90;;;;;;5032425;28;20052;-87
2022/03/26 08:18:44;;;;;;;84.03;48.53;;;9.60;99.90;;;;;;5032504;28;20046;-87
2022/03/26 08:21:10;;;;;;;78.43;47.92;;;9.70;99.90;;;;;;5013987;28;20044;-87
2022/03/26 08:23:36;;;;;;;79.25;48.08;;;9.80;99.90;;;;;;5031698;28;20064;-86
2022/03/26 08:26:22;;;;;;;83.38;47.45;;;10.00;99.90;;;;;;5032785;28;20357;-87
2022/03/26 08:28:51;;;;;;;77.20;45.25;;;10.20;99.90;;;;;;5030928;28;20045;-87
2022/03/26 08:31:18;;;;;;;73.07;46.35;;;10.30;99.90;;;;;;5014411;28;20157;-87
2022/03/26 08:33:45;;;;;;;67.05;41.22;;;10.50;99.90;;;;;;5031634;28;20045;-88
2022/03/26 08:36:11;;;;;;;66.38;40.65;;;10.70;99.90;;;;;;5032113;28;20041;-88
2022/03/26 08:38:37;;;;;;;62.85;37.28;;;10.80;99.90;;;;;;5031801;28;20038;-87
2022/03/26 08:41:04;;;;;;;66.40;39.15;;;11.00;99.90;;;;;;5031420;28;20160;-88
2022/03/26 08:43:30;;;;;;;58.30;37.88;;;11.10;99.90;;;;;;5030966;28;20033;-88
2022/03/26 08:45:56;;;;;;;64.95;40.72;;;11.30;99.90;;;;;;5032107;28;20040;-89
2022/03/26 08:48:21;;;;;;;63.60;40.30;;;11.50;99.90;;;;;;5031708;28;20120;-87
2022/03/26 08:50:48;;;;;;;59.10;39.08;;;11.60;99.70;;;;;;5013538;28;20509;-87
2022/03/26 08:53:14;;;;;;;62.53;39.22;;;11.80;99.50;;;;;;5030259;28;20402;-87
2022/03/26 08:55:39;;;;;;;64.53;42.53;;;11.90;99.20;;;;;;5031410;28;20495;-87
2022/03/26 08:58:07;;;;;;;55.25;37.88;;;12.10;98.70;;;;;;5031795;28;20048;-87
2022/03/26 09:00:34;;;;;;;53.22;37.70;;;12.30;97.90;;;;;;5031353;28;20478;-87
2022/03/26 09:03:00;;;;;;;53.58;35.80;;;12.40;97.40;;;;;;5031085;28;20091;-87
2022/03/26 09:05:26;;;;;;;52.90;37.22;;;12.60;96.80;;;;;;5031311;28;20052;-85
2022/03/26 09:07:52;;;;;;;54.42;36.88;;;12.70;96.10;;;;;;5042430;28;20041;-88
2022/03/26 09:10:17;;;;;;;52.28;35.92;;;12.90;96.10;;;;;;5031576;28;20080;-88
2022/03/26 09:12:43;;;;;;;52.45;36.17;;;13.10;95.40;;;;;;5031538;28;20040;-88
2022/03/26 09:15:08;;;;;;;48.63;33.35;;;13.20;95.30;;;;;;5030997;28;20049;-88
2022/03/26 09:17:36;;;;;;;50.65;32.75;;;13.40;94.60;;;;;;5031972;28;20052;-88
2022/03/26 09:20:02;;;;;;;50.05;32.75;;;13.50;93.60;;;;;;5031257;28;20410;-88
2022/03/26 09:22:28;;;;;;;47.10;30.83;;;13.70;93.10;;;;;;5031247;28;20129;-88
2022/03/26 09:24:53;;;;;;;42.15;30.23;;;13.80;92.40;;;;;;5031072;28;20124;-88
2022/03/26 09:27:19;;;;;;;42.78;30.38;;;13.90;91.40;;;;;;5031206;28;20038;-88
2022/03/26 09:29:47;;;;;;;43.92;28.73;;;14.10;91.30;;;;;;5030740;28;20045;-89
2022/03/26 09:32:13;;;;;;;43.10;28.25;;;14.20;90.60;;;;;;5030382;28;20075;-88
2022/03/26 09:34:38;;;;;;;45.80;29.92;;;14.30;88.80;;;;;;5014194;28;20073;-88
2022/03/26 09:37:05;;;;;;;42.65;28.85;;;14.50;86.90;;;;;;5030820;28;20033;-88
2022/03/26 09:39:30;;;;;;;40.28;28.90;;;14.70;85.70;;;;;;5030698;28;20060;-88
2022/03/26 09:41:58;;;;;;;42.53;30.52;;;14.80;85.20;;;;;;5029878;28;20041;-88
2022/03/26 09:44:24;;;;;;;43.08;30.20;;;15.00;85.10;;;;;;5014346;28;20055;-88
2022/03/26 09:46:50;;;;;;;39.28;28.35;;;15.10;83.80;;;;;;5014419;28;20042;-88
2022/03/26 09:49:16;;;;;;;43.85;30.45;;;15.30;83.10;;;;;;5031023;28;20053;-88
2022/03/26 09:51:42;;;;;;;41.45;29.63;;;15.40;81.10;;;;;;5012586;28;20048;-89
2022/03/26 09:54:08;;;;;;;42.60;29.63;;;15.60;80.10;;;;;;5031634;28;20049;-88
2022/03/26 09:56:34;;;;;;;37.78;26.63;;;15.80;79.20;;;;;;5050331;28;20048;-88
2022/03/26 09:59:00;;;;;;;39.28;28.13;;;15.90;78.10;;;;;;5051511;28;20041;-89
2022/03/26 10:01:26;;;;;;;37.15;26.73;;;16.10;78.10;;;;;;5051234;28;20041;-89
2022/03/26 10:04:16;;;;;;;41.13;28.33;;;16.20;77.30;;;;;;5050953;28;20128;-89
2022/03/26 10:06:49;;;;;;;39.00;26.38;;;16.40;76.30;;;;;;5033833;28;20041;-88
2022/03/26 10:09:35;;;;;;;35.08;25.52;;;16.50;74.70;;;;;;5033894;28;20033;-88
2022/03/26 10:12:16;;;;;;;33.72;24.98;;;16.70;74.10;;;;;;5049636;28;20091;-88
2022/03/26 10:14:47;;;;;;;35.38;22.70;;;16.80;72.90;;;;;;5049775;28;20523;-88
2022/03/26 10:17:19;;;;;;;28.30;20.15;;;17.00;72.70;;;;;;5049797;28;20072;-88
2022/03/26 10:19:51;;;;;;;25.20;20.10;;;17.10;74.80;;;;;;5049616;28;20488;-88
2022/03/26 10:22:34;;;;;;;28.35;20.38;;;17.30;74.80;;;;;;5049941;28;20064;-89
2022/03/26 10:25:10;;;;;;;27.75;19.50;;;17.50;74.80;;;;;;5033465;28;20239;-89
2022/03/26 10:27:46;;;;;;;25.88;19.58;;;17.60;74.80;;;;;;5049907;28;20036;-88
2022/03/26 10:30:17;;;;;;;26.27;19.83;;;17.80;74.40;;;;;;5049803;28;20056;-88
2022/03/26 10:32:46;;;;;;;24.98;19.60;;;17.90;73.90;;;;;;5049662;28;20045;-88
2022/03/26 10:35:20;;;;;;;26.17;19.80;;;18.10;72.10;;;;;;5049665;28;20421;-88
2022/03/26 10:38:01;;;;;;;29.35;21.58;;;18.20;71.40;;;;;;5049213;28;20490;-88
2022/03/26 10:40:35;;;;;;;28.55;22.80;;;18.40;70.60;;;;;;5049308;28;20071;-89
2022/03/26 10:43:03;;;;;;;27.13;21.85;;;18.50;69.90;;;;;;5036819;28;20518;-89
2022/03/26 10:45:30;;;;;;;24.23;17.67;;;18.70;69.90;;;;;;5029952;28;20037;-88
2022/03/26 10:47:58;;;;;;;19.92;16.05;;;18.80;69.90;;;;;;5030336;28;20041;-88
2022/03/26 10:50:25;;;;;;;23.63;17.13;;;19.00;70.60;;;;;;5028947;28;20116;-88
2022/03/26 10:52:55;;;;;;;22.13;16.73;;;19.20;69.00;;;;;;5013359;28;20041;-88
2022/03/26 10:55:22;;;;;;;19.17;14.00;;;19.30;69.70;;;;;;5030130;28;20137;-89
2022/03/26 10:57:48;;;;;;;19.42;16.08;;;19.40;68.90;;;;;;5029389;28;20045;-88
2022/03/26 11:00:15;;;;;;;18.15;14.50;;;19.50;68.30;;;;;;5028174;28;20048;-89
2022/03/26 11:02:43;;;;;;;20.52;16.27;;;19.70;67.20;;;;;;5011676;28;20128;-89
2022/03/26 11:05:10;;;;;;;19.00;14.52;;;19.80;66.90;;;;;;5026975;28;20069;-88
2022/03/26 11:07:37;;;;;;;20.48;14.25;;;19.90;66.80;;;;;;5027740;28;20038;-88
2022/03/26 11:10:08;;;;;;;20.80;14.98;;;20.10;65.40;;;;;;5027760;28;20076;-88
2022/03/26 11:12:36;;;;;;;17.88;13.63;;;20.20;65.50;;;;;;5027746;28;20060;-88
2022/03/26 11:15:06;;;;;;;17.92;13.00;;;20.40;64.40;;;;;;5028292;28;20498;-89
2022/03/26 11:17:58;;;;;;;18.60;14.05;;;20.50;63.60;;;;;;5029003;28;20514;-89
2022/03/26 11:20:57;;;;;;;21.95;15.32;;;20.70;62.70;;;;;;5028610;28;20048;-89
2022/03/26 11:23:46;;;;;;;16.70;12.32;;;20.80;62.20;;;;;;5029125;28;20489;-89
2022/03/26 11:26:33;;;;;;;17.30;12.45;;;21.00;61.30;;;;;;5029381;28;20487;-89
2022/03/26 11:29:15;;;;;;;16.27;12.50;;;21.10;60.90;;;;;;5029324;28;20399;-89
2022/03/26 11:32:09;;;;;;;16.85;12.43;;;21.30;60.30;;;;;;5029088;28;20056;-89
2022/03/26 11:34:38;;;;;;;17.27;12.75;;;21.50;60.00;;;;;;5012969;28;20041;-89
2022/03/26 11:37:12;;;;;;;17.85;12.55;;;21.50;58.80;;;;;;5012716;28;20049;-89
2022/03/26 11:39:51;;;;;;;16.52;11.88;;;21.70;58.40;;;;;;5030861;28;20056;-89
2022/03/26 11:42:37;;;;;;;16.35;11.82;;;21.90;58.40;;;;;;5014863;28;20087;-89
2022/03/26 11:51:19;;;;;;;17.63;12.10;;;22.20;56.40;;;;;;4994814;28;20545;-89
2022/03/26 11:53:47;;;;;;;15.73;11.38;;;22.40;55.40;;;;;;5032719;28;20495;-90
2022/03/26 11:56:27;;;;;;;15.68;12.27;;;22.50;54.90;;;;;;5031870;28;20510;-89
2022/03/26 11:59:16;;;;;;;17.25;12.82;;;22.60;53.80;;;;;;5029405;28;20120;-89
2022/03/26 12:01:50;;;;;;;18.15;13.13;;;22.70;53.50;;;;;;5024001;28;20407;-89
2022/03/26 12:04:24;;;;;;;17.33;13.60;;;22.80;53.10;;;;;;5015715;28;20128;-89
2022/03/26 12:06:51;;;;;;;18.40;13.32;;;23.00;53.40;;;;;;5032753;28;20044;-89
2022/03/26 12:09:34;;;;;;;17.33;12.48;;;23.10;53.30;;;;;;5032500;28;20038;-89
2022/03/26 12:12:06;;;;;;;19.48;13.48;;;23.10;52.60;;;;;;5032717;28;20047;-89
2022/03/26 12:14:32;;;;;;;;;;;23.20;52.20;;;;;;5033576;28;20053;-89
2022/03/26 12:16:58;;;;;;;15.70;12.60;;;23.30;52.90;;;;;;5032423;28;19920;-89
2022/03/26 12:19:46;;;;;;;16.05;11.80;;;23.40;52.60;;;;;;5032314;28;20054;-89
2022/03/26 12:22:33;;;;;;;17.55;12.50;;;23.60;51.90;;;;;;5031763;28;20037;-89
2022/03/26 12:25:00;;;;;;;16.63;12.30;;;23.70;51.50;;;;;;5030109;28;20073;-89
2022/03/26 12:27:27;;;;;;;15.23;11.90;;;23.80;51.40;;;;;;5031944;28;20446;-89
2022/03/26 12:29:54;;;;;;;15.50;10.95;;;23.90;50.70;;;;;;5031709;28;20057;-89
2022/03/26 12:32:20;;;;;;;13.75;10.35;;;24.00;50.70;;;;;;5031660;28;20120;-89
2022/03/26 12:35:05;;;;;;;15.40;11.57;;;24.20;50.10;;;;;;5031890;28;20133;-89
2022/03/26 12:37:31;;;;;;;13.18;8.60;;;24.30;49.80;;;;;;5015155;28;20522;-89
2022/03/26 12:39:57;;;;;;;12.90;8.07;;;24.40;49.50;;;;;;5031171;28;20495;-90
2022/03/26 12:42:24;;;;;;;12.73;8.35;;;24.50;48.50;;;;;;5029676;28;20322;-89